createdAt,value
2023-03-30T00:02:08.582Z,10.77
2023-03-30T00:04:35.472Z,10.90
2023-03-30T00:07:02.541Z,10.48
2023-03-30T00:09:28.920Z,9.93
2023-03-30T00:11:55.469Z,10.70
2023-03-30T00:14:22.043Z,10.15
2023-03-30T00:16:48.753Z,11.02
2023-03-30T00:19:15.570Z,10.25
2023-03-30T00:21:41.869Z,10.93
2023-03-30T00:24:08.807Z,10.57
2023-03-30T00:26:35.222Z,10.52
2023-03-30T00:29:02.176Z,10.48
2023-03-30T00:31:29.175Z,10.60
2023-03-30T00:33:55.658Z,10.95
2023-03-30T00:36:22.921Z,10.32
2023-03-30T00:38:49.760Z,10.48
2023-03-30T00:41:16.123Z,10.05
2023-03-30T00:43:42.454Z,10.27
2023-03-30T00:46:09.115Z,10.93
2023-03-30T00:48:36.025Z,10.55
2023-03-30T00:51:02.804Z,9.90
2023-03-30T00:53:30.324Z,9.95
2023-03-30T00:55:57.159Z,9.80
2023-03-30T00:58:23.569Z,9.63
2023-03-30T01:00:49.957Z,9.52
2023-03-30T01:03:17.165Z,9.80
2023-03-30T01:05:43.919Z,10.32
2023-03-30T01:10:41.730Z,9.93
2023-03-30T01:13:08.227Z,10.20
2023-03-30T01:15:34.604Z,9.57
2023-03-30T01:18:01.143Z,9.55
2023-03-30T01:20:27.741Z,9.80
2023-03-30T01:22:54.117Z,10.25
2023-03-30T01:25:20.511Z,9.98
2023-03-30T01:27:46.886Z,10.23
2023-03-30T01:30:13.194Z,9.70
2023-03-30T01:32:39.562Z,9.43
2023-03-30T01:35:06.039Z,9.40
2023-03-30T01:37:32.971Z,9.52
2023-03-30T01:39:59.594Z,9.27
2023-03-30T01:42:28.778Z,9.20
2023-03-30T01:44:55.189Z,9.82
2023-03-30T01:47:21.538Z,9.30
2023-03-30T01:49:47.898Z,9.23
2023-03-30T01:52:14.272Z,9.38
2023-03-30T01:54:40.726Z,9.65
2023-03-30T01:57:07.146Z,9.20
2023-03-30T01:59:33.515Z,9.45
2023-03-30T02:02:00.023Z,9.13
2023-03-30T02:04:26.425Z,9.48
2023-03-30T02:06:52.777Z,9.73
2023-03-30T02:09:19.188Z,8.98
2023-03-30T02:11:45.644Z,9.18
2023-03-30T02:14:11.950Z,9.18
2023-03-30T02:16:38.994Z,9.93
2023-03-30T02:19:05.436Z,8.85
2023-03-30T02:21:32.353Z,8.10
2023-03-30T02:23:58.660Z,8.52
2023-03-30T02:26:25.068Z,8.90
2023-03-30T02:28:51.429Z,9.18
2023-03-30T02:31:17.989Z,8.82
2023-03-30T02:33:44.655Z,8.63
2023-03-30T02:36:11.361Z,8.52
2023-03-30T02:38:37.770Z,8.90
2023-03-30T02:41:04.325Z,8.30
2023-03-30T02:43:30.862Z,9.57
2023-03-30T02:45:57.782Z,8.80
2023-03-30T02:48:24.143Z,8.63
2023-03-30T02:50:51.302Z,8.82
2023-03-30T02:53:17.664Z,8.18
2023-03-30T02:55:44.049Z,8.93
2023-03-30T02:58:10.943Z,8.20
2023-03-30T03:00:37.378Z,8.27
2023-03-30T03:03:03.834Z,8.02
2023-03-30T03:05:30.223Z,8.00
2023-03-30T03:07:57.458Z,8.25
2023-03-30T03:10:24.064Z,7.80
2023-03-30T03:12:50.397Z,8.13
2023-03-30T03:15:16.703Z,7.72
2023-03-30T03:17:43.538Z,8.93
2023-03-30T03:20:10.432Z,7.90
2023-03-30T03:22:36.805Z,8.77
2023-03-30T03:25:03.183Z,8.10
2023-03-30T03:27:29.543Z,7.53
2023-03-30T03:29:56.623Z,7.55
2023-03-30T03:32:23.041Z,8.20
2023-03-30T03:34:49.379Z,7.68
2023-03-30T03:37:15.752Z,8.23
2023-03-30T03:39:42.066Z,7.75
2023-03-30T03:42:08.735Z,8.05
2023-03-30T03:44:35.317Z,8.30
2023-03-30T03:47:01.639Z,7.72
2023-03-30T03:49:28.603Z,8.05
2023-03-30T03:51:54.997Z,8.05
2023-03-30T03:54:21.415Z,7.63
2023-03-30T03:56:47.748Z,7.47
2023-03-30T03:59:14.042Z,7.65
2023-03-30T04:01:40.388Z,8.02
2023-03-30T04:04:07.157Z,7.50
2023-03-30T04:06:33.920Z,7.82
2023-03-30T04:09:00.699Z,7.18
2023-03-30T04:11:27.269Z,7.18
2023-03-30T04:13:53.626Z,8.43
2023-03-30T04:16:20.077Z,7.35
2023-03-30T04:18:46.604Z,7.40
2023-03-30T04:21:13.277Z,8.25
2023-03-30T04:23:39.798Z,7.30
2023-03-30T04:26:06.303Z,7.22
2023-03-30T04:28:32.733Z,7.20
2023-03-30T04:30:59.542Z,7.93
2023-03-30T04:33:25.890Z,7.18
2023-03-30T04:35:52.298Z,7.75
2023-03-30T04:38:18.693Z,7.45
2023-03-30T04:40:45.273Z,7.30
2023-03-30T04:43:11.769Z,7.20
2023-03-30T04:45:38.519Z,7.18
2023-03-30T04:48:05.026Z,7.45
2023-03-30T04:50:31.994Z,7.30
2023-03-30T04:52:58.413Z,7.05
2023-03-30T04:55:24.996Z,7.22
2023-03-30T04:57:51.314Z,7.30
2023-03-30T05:00:18.479Z,7.30
2023-03-30T05:02:45.513Z,7.22
2023-03-30T05:05:11.929Z,6.60
2023-03-30T05:07:38.247Z,6.75
2023-03-30T05:10:05.022Z,6.97
2023-03-30T05:12:31.645Z,6.32
2023-03-30T05:14:58.125Z,7.03
2023-03-30T05:17:24.495Z,7.47
2023-03-30T05:19:51.163Z,6.88
2023-03-30T05:22:17.829Z,6.72
2023-03-30T05:24:44.423Z,7.32
2023-03-30T05:27:10.745Z,7.05
2023-03-30T05:29:37.205Z,6.95
2023-03-30T05:32:04.435Z,6.93
2023-03-30T05:34:30.841Z,6.70
2023-03-30T05:36:57.427Z,6.72
2023-03-30T05:39:23.776Z,6.60
2023-03-30T05:41:50.233Z,6.18
2023-03-30T05:44:16.734Z,6.82
2023-03-30T05:46:43.494Z,6.55
2023-03-30T05:49:10.244Z,6.63
2023-03-30T05:51:37.526Z,7.28
2023-03-30T05:54:04.127Z,6.65
2023-03-30T05:56:30.449Z,7.07
2023-03-30T05:58:56.848Z,7.20
2023-03-30T06:01:23.594Z,6.97
2023-03-30T06:03:50.250Z,7.38
2023-03-30T06:06:16.791Z,6.70
2023-03-30T06:08:43.763Z,6.43
2023-03-30T06:11:10.453Z,6.25
2023-03-30T06:13:37.038Z,7.03
2023-03-30T06:16:03.898Z,6.72
2023-03-30T06:18:30.450Z,7.47
2023-03-30T06:20:56.796Z,6.75
2023-03-30T06:23:23.209Z,7.38
2023-03-30T06:25:49.807Z,7.75
2023-03-30T06:28:16.398Z,7.70
2023-03-30T06:30:42.753Z,7.72
2023-03-30T06:33:09.274Z,7.97
2023-03-30T06:35:35.704Z,8.55
2023-03-30T06:38:02.099Z,7.63
2023-03-30T06:40:28.498Z,8.95
2023-03-30T06:42:55.428Z,7.82
2023-03-30T06:45:21.847Z,8.90
2023-03-30T06:47:48.366Z,9.32
2023-03-30T06:50:15.126Z,8.77
2023-03-30T06:52:41.575Z,10.05
2023-03-30T06:55:07.926Z,10.32
2023-03-30T06:57:34.789Z,10.40
2023-03-30T07:00:01.615Z,9.77
2023-03-30T07:02:27.969Z,10.75
2023-03-30T07:04:54.554Z,10.77
2023-03-30T07:07:21.040Z,11.55
2023-03-30T07:09:47.578Z,13.23
2023-03-30T07:12:14.468Z,13.23
2023-03-30T07:14:41.040Z,13.02
2023-03-30T07:17:07.379Z,13.88
2023-03-30T07:19:34.436Z,14.05
2023-03-30T07:22:00.889Z,16.35
2023-03-30T07:24:27.309Z,42.88
2023-03-30T07:26:53.675Z,54.25
2023-03-30T07:29:20.403Z,42.42
2023-03-30T07:31:47.453Z,30.77
2023-03-30T07:34:13.817Z,28.38
2023-03-30T07:36:40.895Z,27.55
2023-03-30T07:39:07.735Z,29.45
2023-03-30T07:41:34.250Z,28.60
2023-03-30T07:44:00.870Z,28.60
2023-03-30T07:46:27.783Z,29.10
2023-03-30T07:48:54.395Z,28.85
2023-03-30T07:51:20.886Z,31.00
2023-03-30T07:53:47.504Z,29.77
2023-03-30T07:56:14.009Z,31.65
2023-03-30T07:58:40.392Z,29.77
2023-03-30T08:01:07.343Z,30.83
2023-03-30T08:03:33.849Z,30.92
2023-03-30T08:06:00.305Z,30.20
2023-03-30T08:08:26.991Z,29.73
2023-03-30T08:10:53.957Z,31.33
2023-03-30T08:13:22.004Z,32.00
2023-03-30T08:15:48.559Z,31.02
2023-03-30T08:18:15.629Z,31.77
2023-03-30T08:20:41.988Z,31.20
2023-03-30T08:23:08.455Z,32.28
2023-03-30T08:25:34.742Z,32.35
2023-03-30T08:28:01.097Z,30.30
2023-03-30T08:30:27.556Z,31.85
2023-03-30T08:32:53.955Z,32.75
2023-03-30T08:35:20.526Z,32.13
2023-03-30T08:37:47.239Z,31.60
2023-03-30T08:40:13.607Z,32.42
2023-03-30T08:42:40.036Z,33.45
2023-03-30T08:45:06.564Z,31.60
2023-03-30T08:47:33.004Z,31.95
2023-03-30T08:49:59.418Z,32.55
2023-03-30T08:52:26.404Z,33.00
2023-03-30T08:54:52.820Z,31.15
2023-03-30T08:57:21.047Z,31.65
2023-03-30T08:59:47.588Z,34.72
2023-03-30T09:02:13.923Z,31.25
2023-03-30T09:04:40.307Z,30.75
2023-03-30T09:07:06.737Z,31.17
2023-03-30T09:09:33.069Z,31.73
2023-03-30T09:11:59.640Z,32.22
2023-03-30T09:14:25.996Z,31.55
2023-03-30T09:16:52.861Z,32.13
2023-03-30T09:19:19.672Z,31.50
2023-03-30T09:21:46.051Z,30.95
2023-03-30T09:24:12.614Z,31.25
2023-03-30T09:26:39.315Z,30.92
2023-03-30T09:29:05.753Z,32.17
2023-03-30T09:31:32.479Z,31.77
2023-03-30T09:33:59.266Z,31.73
2023-03-30T09:36:27.739Z,30.35
2023-03-30T09:38:54.240Z,31.75
2023-03-30T09:41:20.540Z,31.75
2023-03-30T09:43:46.990Z,29.80
2023-03-30T09:46:13.364Z,30.85
2023-03-30T09:48:39.852Z,32.35
2023-03-30T09:51:06.223Z,30.73
2023-03-30T09:53:32.888Z,29.58
2023-03-30T09:55:59.429Z,31.02
2023-03-30T09:58:25.854Z,28.35
2023-03-30T10:00:52.851Z,29.33
2023-03-30T10:03:19.995Z,29.60
2023-03-30T10:05:47.103Z,28.38
2023-03-30T10:08:13.527Z,29.10
2023-03-30T10:10:39.918Z,28.92
2023-03-30T10:13:06.283Z,28.77
2023-03-30T10:15:33.348Z,28.92
2023-03-30T10:17:59.835Z,27.02
2023-03-30T10:20:26.212Z,27.98
2023-03-30T10:22:52.578Z,27.55
2023-03-30T10:25:18.959Z,28.27
2023-03-30T10:27:46.423Z,26.40
2023-03-30T10:30:13.989Z,27.08
2023-03-30T10:32:40.570Z,27.83
2023-03-30T10:35:07.317Z,27.48
2023-03-30T10:37:34.173Z,25.92
2023-03-30T10:40:00.774Z,26.30
2023-03-30T10:42:27.463Z,26.13
2023-03-30T10:44:54.045Z,24.52
2023-03-30T10:47:20.582Z,25.70
2023-03-30T10:49:47.321Z,25.80
2023-03-30T10:52:13.730Z,24.52
2023-03-30T10:54:40.130Z,24.05
2023-03-30T10:57:06.521Z,25.67
2023-03-30T10:59:33.000Z,25.20
2023-03-30T11:01:59.581Z,23.90
2023-03-30T11:04:26.272Z,24.45
2023-03-30T11:06:52.681Z,23.67
2023-03-30T11:09:19.490Z,23.83
2023-03-30T11:11:45.887Z,23.48
2023-03-30T11:14:12.249Z,23.77
2023-03-30T11:16:38.893Z,23.85
2023-03-30T11:19:05.607Z,22.73
2023-03-30T11:21:32.002Z,22.75
2023-03-30T11:23:58.744Z,23.70
2023-03-30T11:26:25.661Z,22.58
2023-03-30T11:28:52.050Z,23.08
2023-03-30T11:31:18.611Z,23.15
2023-03-30T11:33:46.788Z,22.23
2023-03-30T11:36:13.383Z,21.92
2023-03-30T11:38:39.744Z,22.20
2023-03-30T11:41:06.854Z,22.80
2023-03-30T11:43:33.681Z,21.42
2023-03-30T11:46:03.644Z,21.85
2023-03-30T11:48:30.652Z,21.53
2023-03-30T11:50:57.122Z,21.73
2023-03-30T11:53:23.397Z,21.40
2023-03-30T11:55:50.054Z,21.52
2023-03-30T11:58:16.390Z,22.85
2023-03-30T12:00:42.946Z,20.42
2023-03-30T12:03:09.972Z,21.08
2023-03-30T12:05:36.624Z,20.42
2023-03-30T12:08:03.241Z,21.30
2023-03-30T12:10:29.896Z,19.75
2023-03-30T12:12:56.644Z,19.77
2023-03-30T12:15:23.417Z,20.58
2023-03-30T12:17:50.415Z,19.92
2023-03-30T12:20:17.377Z,19.58
2023-03-30T12:22:43.704Z,21.15
2023-03-30T12:25:10.376Z,20.85
2023-03-30T12:27:36.830Z,19.90
2023-03-30T12:30:03.745Z,20.33
2023-03-30T12:32:31.012Z,19.55
2023-03-30T12:34:57.541Z,19.90
2023-03-30T12:37:23.929Z,20.38
2023-03-30T12:39:50.626Z,19.48
2023-03-30T12:42:17.000Z,19.25
2023-03-30T12:44:43.356Z,19.27
2023-03-30T12:47:11.686Z,18.35
2023-03-30T12:49:38.800Z,17.73
2023-03-30T12:52:05.242Z,18.38
2023-03-30T12:54:31.551Z,18.45
2023-03-30T12:56:58.260Z,17.23
2023-03-30T12:59:24.610Z,17.27
2023-03-30T13:01:51.409Z,17.63
2023-03-30T13:04:18.134Z,17.75
2023-03-30T13:06:45.311Z,17.35
2023-03-30T13:09:11.891Z,17.33
2023-03-30T13:11:38.223Z,16.35
2023-03-30T13:14:05.190Z,17.00
2023-03-30T13:16:31.750Z,17.67
2023-03-30T13:18:58.166Z,15.85
2023-03-30T13:21:24.605Z,16.38
2023-03-30T13:23:51.026Z,16.83
2023-03-30T13:26:28.160Z,15.23
2023-03-30T13:28:59.190Z,15.95
2023-03-30T13:31:25.631Z,16.92
2023-03-30T13:33:52.045Z,16.15
2023-03-30T13:36:18.891Z,15.50
2023-03-30T13:38:45.422Z,15.40
2023-03-30T13:41:12.232Z,14.32
2023-03-30T13:43:38.646Z,14.82
2023-03-30T13:46:16.448Z,14.38
2023-03-30T13:48:44.067Z,15.07
2023-03-30T13:51:10.443Z,14.35
2023-03-30T13:53:36.871Z,14.23
2023-03-30T13:56:04.216Z,13.27
2023-03-30T13:58:31.106Z,13.25
2023-03-30T14:00:58.066Z,14.38
2023-03-30T14:03:25.015Z,13.73
2023-03-30T14:05:51.306Z,14.85
2023-03-30T14:08:17.928Z,12.68
2023-03-30T14:10:44.317Z,13.13
2023-03-30T14:13:10.976Z,13.57
2023-03-30T14:15:37.366Z,12.20
2023-03-30T14:18:03.724Z,13.05
2023-03-30T14:20:30.322Z,13.57
2023-03-30T14:22:56.597Z,12.48
2023-03-30T14:25:23.198Z,12.82
2023-03-30T14:27:49.509Z,13.10
2023-03-30T14:30:15.837Z,11.70
2023-03-30T14:32:42.287Z,12.18
2023-03-30T14:35:08.671Z,12.38
2023-03-30T14:37:34.995Z,11.07
2023-03-30T14:40:01.261Z,11.93
2023-03-30T14:42:27.586Z,12.18
2023-03-30T14:44:54.140Z,11.40
2023-03-30T14:47:20.567Z,11.70
2023-03-30T14:49:46.882Z,10.90
2023-03-30T14:52:13.453Z,11.32
2023-03-30T14:54:39.893Z,11.18
2023-03-30T14:57:06.289Z,10.88
2023-03-30T14:59:32.814Z,11.05
2023-03-30T15:01:59.312Z,9.98
2023-03-30T15:04:25.787Z,10.32
2023-03-30T15:06:52.226Z,10.55
2023-03-30T15:09:18.580Z,10.05
2023-03-30T15:11:45.009Z,10.13
2023-03-30T15:14:11.374Z,10.15
2023-03-30T15:16:38.083Z,9.90
2023-03-30T15:19:04.522Z,9.85
2023-03-30T15:21:30.873Z,9.20
2023-03-30T15:23:57.519Z,10.20
2023-03-30T15:26:23.841Z,9.52
2023-03-30T15:28:50.336Z,9.82
2023-03-30T15:31:16.787Z,9.55
2023-03-30T15:33:43.256Z,9.38
2023-03-30T15:36:09.698Z,9.13
2023-03-30T15:38:36.221Z,9.30
2023-03-30T15:41:02.895Z,9.93
2023-03-30T15:43:29.293Z,9.43
2023-03-30T15:45:55.896Z,8.93
2023-03-30T15:48:22.281Z,8.88
2023-03-30T15:50:48.601Z,8.65
2023-03-30T15:53:14.881Z,8.70
2023-03-30T15:55:41.192Z,8.82
2023-03-30T15:58:07.586Z,8.70
2023-03-30T16:00:34.002Z,9.35
2023-03-30T16:03:00.494Z,9.45
2023-03-30T16:05:27.480Z,8.85
2023-03-30T16:07:53.918Z,8.20
2023-03-30T16:10:20.286Z,8.80
2023-03-30T16:12:46.786Z,8.93
2023-03-30T16:15:13.141Z,8.77
2023-03-30T16:17:39.732Z,8.77
2023-03-30T16:20:06.213Z,8.60
2023-03-30T16:22:32.631Z,9.05
2023-03-30T16:24:58.985Z,8.70
2023-03-30T16:27:25.493Z,7.68
2023-03-30T16:29:51.961Z,8.23
2023-03-30T16:32:18.272Z,7.90
2023-03-30T16:34:44.809Z,7.90
2023-03-30T16:37:11.380Z,7.80
2023-03-30T16:39:37.879Z,7.93
2023-03-30T16:42:04.243Z,7.32
2023-03-30T16:44:30.733Z,8.02
2023-03-30T16:46:57.051Z,7.78
2023-03-30T16:49:23.329Z,7.82
2023-03-30T16:51:49.735Z,7.25
2023-03-30T16:54:27.739Z,7.43
2023-03-30T16:56:57.184Z,7.15
2023-03-30T16:59:23.559Z,7.00
2023-03-30T17:01:50.140Z,6.85
2023-03-30T17:04:17.000Z,6.78
2023-03-30T17:06:43.338Z,6.25
2023-03-30T17:09:09.680Z,7.45
2023-03-30T17:11:36.029Z,27.23
2023-03-30T17:14:02.772Z,96.72
2023-03-30T17:16:29.521Z,73.43
2023-03-30T17:18:56.306Z,67.75
2023-03-30T17:21:22.760Z,61.33
2023-03-30T17:23:49.154Z,56.15
2023-03-30T17:26:15.644Z,180.30
2023-03-30T17:28:42.378Z,174.10
2023-03-30T17:31:11.044Z,149.57
2023-03-30T17:33:37.818Z,135.10
2023-03-30T17:36:04.371Z,124.82
2023-03-30T17:38:30.749Z,119.22
2023-03-30T17:40:57.120Z,111.82
2023-03-30T17:43:23.489Z,106.78
2023-03-30T17:45:49.900Z,91.47
2023-03-30T17:48:16.718Z,86.97
2023-03-30T17:50:43.050Z,81.68
2023-03-30T17:53:09.801Z,77.22
2023-03-30T17:55:36.690Z,125.13
2023-03-30T17:58:02.980Z,133.48
2023-03-30T18:00:29.644Z,120.45
2023-03-30T18:02:56.007Z,110.75
2023-03-30T18:05:22.827Z,106.13
2023-03-30T18:07:49.165Z,100.78
2023-03-30T18:10:15.687Z,96.18
2023-03-30T18:12:42.105Z,93.82
2023-03-30T18:15:08.426Z,86.65
2023-03-30T18:17:34.763Z,85.00
2023-03-30T18:20:01.255Z,78.05
2023-03-30T18:22:27.914Z,74.95
2023-03-30T18:24:54.321Z,68.57
2023-03-30T18:27:20.786Z,68.32
2023-03-30T18:29:47.417Z,63.97
2023-03-30T18:32:13.942Z,59.78
2023-03-30T18:34:40.321Z,57.67
2023-03-30T18:37:06.782Z,56.28
2023-03-30T18:39:33.122Z,52.42
2023-03-30T18:41:59.766Z,145.55
2023-03-30T18:44:26.317Z,204.55
2023-03-30T18:46:52.680Z,169.95
2023-03-30T18:49:19.029Z,156.48
2023-03-30T18:51:45.463Z,140.38
2023-03-30T18:54:11.813Z,129.07
2023-03-30T18:56:38.166Z,121.82
2023-03-30T18:59:04.540Z,116.40
2023-03-30T19:01:31.447Z,110.88
2023-03-30T19:03:57.750Z,107.07
2023-03-30T19:06:24.090Z,102.53
2023-03-30T19:08:50.482Z,98.10
2023-03-30T19:11:17.059Z,94.05
2023-03-30T19:13:43.359Z,205.82
2023-03-30T19:16:09.746Z,228.75
2023-03-30T19:18:36.159Z,203.27
2023-03-30T19:21:03.113Z,191.93
2023-03-30T19:23:29.790Z,174.50
2023-03-30T19:25:56.243Z,165.52
2023-03-30T19:28:22.576Z,157.98
2023-03-30T19:30:49.494Z,144.73
2023-03-30T19:33:15.930Z,138.00
2023-03-30T19:35:42.327Z,134.90
2023-03-30T19:38:09.244Z,127.88
2023-03-30T19:40:35.807Z,120.50
2023-03-30T19:43:02.614Z,115.18
2023-03-30T19:45:29.081Z,132.05
2023-03-30T19:47:55.452Z,302.27
2023-03-30T19:50:21.907Z,255.73
2023-03-30T19:52:48.905Z,233.40
2023-03-30T19:55:15.350Z,229.07
2023-03-30T19:57:41.801Z,212.60
2023-03-30T20:00:08.162Z,199.85
2023-03-30T20:02:34.559Z,154.38
2023-03-30T20:05:00.886Z,118.90
2023-03-30T20:07:27.434Z,109.10
2023-03-30T20:09:53.856Z,105.97
2023-03-30T20:12:20.725Z,108.13
2023-03-30T20:14:47.100Z,96.05
2023-03-30T20:17:13.403Z,92.85
2023-03-30T20:19:39.781Z,88.78
2023-03-30T20:22:06.329Z,86.05
2023-03-30T20:24:32.592Z,80.47
2023-03-30T20:26:59.390Z,76.85
2023-03-30T20:29:25.736Z,73.25
2023-03-30T20:31:52.309Z,73.43
2023-03-30T20:34:18.798Z,93.43
2023-03-30T20:36:45.547Z,286.70
2023-03-30T20:39:11.874Z,271.02
2023-03-30T20:41:38.277Z,243.15
2023-03-30T20:44:04.701Z,229.63
2023-03-30T20:46:31.100Z,218.65
2023-03-30T20:48:57.386Z,209.32
2023-03-30T20:51:23.834Z,193.32
2023-03-30T20:53:50.298Z,186.68
2023-03-30T20:56:17.196Z,181.38
2023-03-30T20:58:43.682Z,167.75
2023-03-30T21:01:10.499Z,160.75
2023-03-30T21:03:36.971Z,293.00
2023-03-30T21:06:03.710Z,361.05
2023-03-30T21:08:30.745Z,317.08
2023-03-30T21:10:57.483Z,297.85
2023-03-30T21:13:23.826Z,284.77
2023-03-30T21:15:50.201Z,272.30
2023-03-30T21:18:16.485Z,255.57
2023-03-30T21:20:42.780Z,250.95
2023-03-30T21:23:09.651Z,238.27
2023-03-30T21:25:36.306Z,228.68
2023-03-30T21:28:02.961Z,339.00
2023-03-30T21:30:29.754Z,406.55
2023-03-30T21:32:56.192Z,363.58
2023-03-30T21:35:22.537Z,352.48
2023-03-30T21:37:48.923Z,332.58
2023-03-30T21:40:15.530Z,324.67
2023-03-30T21:42:42.270Z,449.95
2023-03-30T21:45:08.984Z,430.75
2023-03-30T21:47:35.481Z,404.00
2023-03-30T21:50:02.037Z,392.88
2023-03-30T21:52:28.410Z,392.63
2023-03-30T21:54:54.858Z,459.58
2023-03-30T21:57:21.248Z,473.30
2023-03-30T21:59:48.107Z,458.33
2023-03-30T22:02:14.672Z,443.55
2023-03-30T22:04:41.386Z,441.00
2023-03-30T22:07:08.247Z,435.77
2023-03-30T22:09:34.650Z,437.15
2023-03-30T22:12:00.912Z,430.10
2023-03-30T22:14:28.200Z,419.05
2023-03-30T22:16:54.571Z,418.70
2023-03-30T22:19:21.551Z,414.33
2023-03-30T22:21:48.333Z,407.48
2023-03-30T22:24:14.662Z,399.90
2023-03-30T22:26:40.963Z,397.90
2023-03-30T22:29:07.275Z,394.48
2023-03-30T22:31:33.770Z,389.73
2023-03-30T22:34:00.218Z,387.08
2023-03-30T22:36:26.643Z,382.60
2023-03-30T22:38:53.038Z,376.48
2023-03-30T22:41:19.409Z,374.60
2023-03-30T22:43:45.768Z,371.08
2023-03-30T22:46:12.433Z,362.48
2023-03-30T22:48:39.575Z,361.98
2023-03-30T22:51:06.186Z,360.40
2023-03-30T22:53:33.075Z,351.85
2023-03-30T22:55:59.415Z,347.35
2023-03-30T22:58:25.979Z,347.65
2023-03-30T23:00:52.375Z,344.45
2023-03-30T23:03:18.900Z,332.73
2023-03-30T23:05:45.465Z,332.10
2023-03-30T23:08:11.898Z,330.08
2023-03-30T23:10:38.222Z,323.38
2023-03-30T23:13:05.135Z,318.70
2023-03-30T23:15:31.521Z,320.88
2023-03-30T23:17:58.309Z,315.30
2023-03-30T23:20:24.605Z,308.80
2023-03-30T23:22:50.967Z,306.50
2023-03-30T23:25:17.879Z,303.42
2023-03-30T23:27:44.367Z,298.65
2023-03-30T23:30:10.734Z,296.50
2023-03-30T23:32:37.465Z,295.08
2023-03-30T23:35:03.853Z,292.13
2023-03-30T23:37:30.272Z,283.25
2023-03-30T23:39:56.602Z,280.33
2023-03-30T23:42:23.396Z,274.17
2023-03-30T23:44:50.083Z,275.02
2023-03-30T23:47:16.491Z,276.25
2023-03-30T23:49:43.393Z,266.50
2023-03-30T23:52:09.842Z,263.38
2023-03-30T23:54:36.201Z,262.92
2023-03-30T23:57:02.677Z,259.60
2023-03-30T23:59:29.066Z,259.23
